LERS/REU METAR and TAF weather

Enter ICAO airport designator
Station Type Date Time Source
LERS METAR 2022/06/29 00:00 UTC NOAA

LERS 290000Z AUTO 36006KT CAVOK 21/18 Q1016


Station Type Date Time Source
LERS Decoded METAR 2022/06/29 00:00 UTC NOAA

Reus / Aeropuerto, Spain (LERS) 41-09N 001-10E 76M
Jun 28, 2022 - 08:00 PM EDT / 2022.06.29 0000 UTC
Wind: from the N (360 degrees) at 7 MPH (6 KT):0
Visibility: greater than 7 mile(s):0
Temperature: 69 F (21 C)
Dew Point: 64 F (18 C)
Relative Humidity: 82%
Pressure (altimeter): 30.00 in. Hg (1016 hPa)
ob: LERS 290000Z AUTO 36006KT CAVOK 21/18 Q1016
cycle: 0

Station Type Date Time Source
LERS TAF 2022/06/28 21:31 UTC NOAA

TAF LERS 282000Z 2821/2921 23005KT 9999 FEW030 TX28/2913Z TN18/2905Z
BECMG 2910/2912 16010KT
BECMG 2918/2921 VRB04KT

Example: see airport list